ADDS METAR Data INFO
IDs: Format: Raw Decoded Include TAF

Data at: 2355 UTC 24 Feb 2018

KT65 242335Z AUTO 18018G26KT 10SM CLR 27/19 A2979 RMK AO2 T02710186
KT65 242315Z AUTO 17019G24KT 10SM CLR 27/19 A2979 RMK AO2 T02730190
KT65 242255Z AUTO 18016G24KT 10SM CLR 28/19 A2977 RMK AO2 T02770191
KT65 242235Z AUTO 18017G26KT 10SM CLR 28/19 A2977 RMK AO2 T02840194
KT65 242215Z AUTO 17020G26KT 10SM CLR 28/20 A2976 RMK AO2 T02830197
KT65 242155Z AUTO 17019G25KT 10SM CLR 29/20 A2976 RMK AO2 T02850196
KT65 242135Z AUTO 17018G25KT 10SM CLR 29/20 A2976 RMK AO2 T02930195
KT65 242115Z AUTO 19018G26KT 10SM CLR 30/20 A2976 RMK AO2 T03030201
KT65 242055Z AUTO 17021G29KT 10SM CLR 29/20 A2976 RMK AO2 T02930199
KT65 242035Z AUTO 18021G29KT 10SM CLR 30/20 A2978 RMK AO2 T03040201
KT65 242015Z AUTO 18023G30KT 10SM CLR 30/20 A2978 RMK AO2 T03000200
KT65 241955Z AUTO 18022G28KT 10SM SCT039 30/20 A2979 RMK AO2 T03030201
KT65 241935Z AUTO 17024G31KT 10SM SCT039 30/20 A2979 RMK AO2 T03040201
KT65 241915Z AUTO 18021G33KT 10SM SCT041 30/20 A2981 RMK AO2 T03010197
KT65 241855Z AUTO 17019G32KT 10SM SCT043 31/19 A2982 RMK AO2 T03080194
KT65 241835Z AUTO 18021G28KT 10SM CLR 31/19 A2983 RMK AO2 T03060193
KT65 241815Z AUTO 18023G30KT 10SM SCT046 31/18 A2984 RMK AO2 T03060184
KT65 241755Z AUTO 19025G32KT 10SM SCT038 30/18 A2985 RMK AO2 6//// T03010181
KT65 241735Z AUTO 18021G32KT 10SM SCT036 29/19 A2986 RMK AO2 T02920188
KT65 241715Z AUTO 19022G33KT 10SM SCT030 29/19 A2987 RMK AO2 T02860190
KT65 241655Z AUTO 19026G32KT 10SM SCT028 28/19 A2989 RMK AO2 T02830193
KT65 241635Z AUTO 18024G33KT 10SM BKN026 27/20 A2988 RMK AO2 T02710196
KT65 241615Z AUTO 18024G34KT 10SM BKN026 27/19 A2988 RMK AO2 T02660194
KT65 241555Z AUTO 18019G33KT 10SM BKN024 26/19 A2989 RMK AO2 T02610194
KT65 241535Z AUTO 19022G32KT 10SM SCT022 SCT027 26/20 A2990 RMK AO2 T02550195
KT65 241515Z AUTO 18020G29KT 10SM SCT018 SCT023 25/20 A2989 RMK AO2 T02490198
KT65 241435Z AUTO 17018G27KT 7SM SCT016 24/20 A2989 RMK AO2 T02380200
KT65 241415Z AUTO 17015G27KT 5SM HZ SCT014 23/20 A2989 RMK AO2 T02310200
KT65 241355Z AUTO 17016G21KT 7SM CLR 23/20 A2989 RMK AO2 T02280197
KT65 241335Z AUTO 18016G22KT 5SM HZ CLR 23/20 A2988 RMK AO2 T02250197
KT65 241315Z AUTO 17015G21KT 7SM CLR 22/20 A2989 RMK AO2 T02220196
KT65 241255Z AUTO 17013G19KT 7SM SCT015 SCT022 22/20 A2989 RMK AO2 T02220197
KT65 241235Z AUTO 17014G20KT 7SM BKN017 OVC022 23/20 A2989 RMK AO2 T02250197
KT65 241215Z AUTO 18015G19KT 7SM BKN017 23/20 A2989 RMK AO2 T02260196
KT65 241155Z AUTO 17018G23KT 7SM BKN017 BKN023 23/20 A2987 RMK AO2 7//// T02260198 10234 20226
KT65 241135Z AUTO 18014G24KT 7SM OVC017 23/20 A2989 RMK AO2 T02300199
KT65 241115Z AUTO 18014G22KT 7SM OVC017 23/20 A2988 RMK AO2 T02300199
KT65 241055Z AUTO 19015G20KT 7SM OVC016 23/20 A2988 RMK AO2 T02300199
KT65 241035Z AUTO 18017G26KT 7SM OVC016 23/20 A2987 RMK AO2 T02300200
KT65 241015Z AUTO 17017G24KT 7SM OVC016 23/20 A2988 RMK AO2 T02280201
KT65 240955Z AUTO 18011G19KT 7SM BKN016 OVC021 23/20 A2989 RMK AO2 T02290200
KT65 240935Z AUTO 19016G21KT 7SM BKN016 OVC020 23/20 A2990 RMK AO2 T02280200
KT65 240915Z AUTO 19015G23KT 7SM OVC014 23/20 A2991 RMK AO2 T02300200
KT65 240855Z AUTO 18016G24KT 7SM OVC016 23/20 A2991 RMK AO2 T02300200
KT65 240835Z AUTO 18018G21KT 7SM OVC016 23/20 A2991 RMK AO2 T02300200
KT65 240815Z AUTO 18014G21KT 7SM OVC016 23/20 A2992 RMK AO2 T02310200
KT65 240755Z AUTO 18015G25KT 10SM OVC016 23/20 A2992 RMK AO2 T02310200
KT65 240735Z AUTO 18014G25KT 7SM OVC016 23/20 A2992 RMK AO2 T02320201
KT65 240715Z AUTO 18017G22KT 10SM BKN016 OVC020 23/20 A2992 RMK AO2 T02320202
KT65 240655Z AUTO 17018G25KT 7SM OVC014 23/20 A2992 RMK AO2 T02320203
KT65 240635Z AUTO 18017G22KT 10SM OVC014 23/20 A2993 RMK AO2 T02310202
KT65 240615Z AUTO 18018G25KT 7SM OVC014 23/20 A2993 RMK AO2 T02330203
KT65 240555Z AUTO 18014G23KT 7SM OVC014 23/20 A2994 RMK AO2 T02330204 10269 20226
KT65 240535Z AUTO 18018G28KT 7SM OVC014 23/21 A2994 RMK AO2 T02330205
KT65 240515Z AUTO 17015G22KT 7SM OVC016 23/21 A2994 RMK AO2 T02320206
KT65 240455Z AUTO 17018G23KT 7SM OVC016 23/21 A2994 RMK AO2 T02310205
KT65 240435Z AUTO 17015G21KT 7SM OVC013 23/21 A2995 RMK AO2 T02320205
KT65 240415Z AUTO 17014G19KT 7SM OVC013 23/21 A2995 RMK AO2 T02310205
KT65 240355Z AUTO 17015G23KT 7SM OVC013 23/21 A2995 RMK AO2 T02320205
KT65 240335Z AUTO 17016G19KT 7SM OVC011 23/21 A2995 RMK AO2 T02300206
KT65 240315Z AUTO 17011G19KT 7SM OVC011 23/21 A2995 RMK AO2 T02280205
KT65 240255Z AUTO 17012G22KT 7SM BKN011 23/21 A2995 RMK AO2 T02280205
KT65 240235Z AUTO 17014G20KT 7SM SCT013 23/20 A2995 RMK AO2 T02260202
KT65 240215Z AUTO 16013G20KT 7SM CLR 23/20 A2995 RMK AO2 T02270200
KT65 240155Z AUTO 16012G17KT 10SM CLR 23/19 A2994 RMK AO2 T02300194
KT65 240135Z AUTO 16014G21KT 10SM CLR 23/19 A2994 RMK AO2 T02330190
KT65 240115Z AUTO 16016G24KT 10SM CLR 24/19 A2994 RMK AO2 T02370188
KT65 240055Z AUTO 16014G20KT 10SM CLR 24/19 A2994 RMK AO2 T02410189
KT65 240035Z AUTO 16014G22KT 10SM CLR 25/19 A2994 RMK AO2 T02500186
KT65 240015Z AUTO 16019G25KT 10SM CLR 26/19 A2994 RMK AO2 T02600185
KT65 232355Z AUTO 16016G22KT 10SM CLR 27/18 A2993 RMK AO2 T02710182 10300 20251
KT65 232335Z AUTO 17022G27KT 10SM CLR 28/18 A2993 RMK AO2 T02770177
KT65 232315Z AUTO 18020G25KT 10SM CLR 28/18 A2993 RMK AO2 T02820176
KT65 232255Z AUTO 17021G27KT 10SM CLR 29/18 A2993 RMK AO2 T02850178
KT65 232235Z AUTO 17019G25KT 10SM CLR 29/17 A2993 RMK AO2 T02900174
KT65 232215Z AUTO 17015G25KT 10SM CLR 29/18 A2993 RMK AO2 T02920176
KT65 232155Z AUTO 19018G26KT 10SM CLR 30/17 A2994 RMK AO2 T02950173
KT65 232135Z AUTO 19020G26KT 10SM CLR 30/18 A2994 RMK AO2 T02980176
KT65 232115Z AUTO 18022G28KT 10SM CLR 30/18 A2994 RMK AO2 T02950176
KT65 232055Z AUTO 17018G24KT 10SM CLR 30/18 A2995 RMK AO2 T02980181
KT65 232035Z AUTO 18020G27KT 10SM CLR 30/18 A2996 RMK AO2 T02950179
KT65 232015Z AUTO 18018G27KT 10SM SCT042 30/18 A2997 RMK AO2 T02950181
KT65 231955Z AUTO 19018G27KT 10SM CLR 30/18 A2998 RMK AO2 T02950181
KT65 231935Z AUTO 18017G25KT 10SM SCT039 29/18 A2999 RMK AO2 T02930181
KT65 231915Z AUTO 17015G23KT 10SM OVC039 29/18 A3000 RMK AO2 T02930183
KT65 231855Z AUTO 18018G24KT 10SM BKN039 29/19 A3002 RMK AO2 T02860186
KT65 231835Z AUTO 17019G25KT 10SM 28/19 A3003 RMK AO2 T02800186
KT65 231815Z AUTO 18017G25KT 10SM 27/19 A3005 RMK AO2 T02720186
KT65 231755Z AUTO 18014G20KT 7SM 25/20 A3006 RMK AO2 6//// T02520197
KT65 231735Z AUTO 00000KT 5SM BR 21/20 A3007 RMK AO2 T02070201
KT65 231715Z AUTO 00000KT 3SM BR 19/19 A3008 RMK AO2 T01910187
KT65 231655Z AUTO 00000KT 1SM -RA 18/18 A3009 RMK AO2 T01810177
KT65 231635Z AUTO 33003KT 1/2SM -RA A3011 RMK AO2